AirNav   Air Wisconsin pilot careers
 
 809 users online  

50F Bourland Field Airport
Fort Worth, Texas, USA

GOING TO FORT WORTH?


FAA INFORMATION EFFECTIVE 09 NOVEMBER 2017

Location

FAA Identifier: 50F
Lat/Long: 32-34-54.6000N / 097-35-26.8000W
32-34.910000N / 097-35.446667W
32.5818333 / -97.5907778
(estimated)
Elevation: 873.2 ft. / 266.2 m (surveyed)
Variation: 06E (2000)
From city: 17 miles SW of FORT WORTH, TX
Time zone: UTC -6 (UTC -5 during Daylight Saving Time)
Zip code: 76126

Airport Operations

Airport use: Open to the public
Activation date: 09/1981
Control tower: no
ARTCC: FORT WORTH CENTER
FSS: FORT WORTH FLIGHT SERVICE STATION
NOTAMs facility: FTW (NOTAM-D service available)
Attendance: DAYLIGHT HOURS
FOR SVCS AFT HRS CALL 817-396-4554.
Wind indicator: lighted
Segmented circle: yes
Lights: ACTVT MIRL RY 17/35, VASI RYS 17 & 35 - CTAF.
Beacon: white-green (lighted land airport)
Operates sunset to sunrise.

Airport Communications

CTAF/UNICOM: 123.0
REGIONAL APPROACH: 135.975
REGIONAL DEPARTURE: 135.975
DODJE STAR: 125.2 125.9
LIKES STAR: 125.8(SOUTH) 135.975(NORTH)
MOTZA STAR: 118.1(SOUTH) 125.8(NORTH)
REEKO STAR: 125.2
SANGR STAR: 124.3
SASIE STAR: 124.3
SLUGG STAR: 125.8(SOUTH) 135.975(NORTH)
WESAT STAR: 118.1(SOUTH) 125.8(NORTH)
WX AWOS-3 at GDJ (14 nm SW): 118.925 (817-573-7514)
WX AWOS-3 at FWS (14 nm E): 120.025 (817-426-4172)
WX AWOS-3 at CPT (16 nm SE): 119.525 (817-641-4135)
WX ASOS at FTW (18 nm NE): PHONE 817-740-3346

Nearby radio navigation aids

VOR radial/distance  VOR name  Freq  Var
MQPr104/22.3MILLSAP VORTAC117.7009E
FUZr222/27.8RANGER VORTAC115.7006E
JENr024/29.2GLEN ROSE VORTAC115.0006E
TTTr232/32.7MAVERICK VOR/DME113.1006E
CVEr236/39.3COWBOY VOR/DME116.2006E

Airport Services

Fuel available: 100LL JET-A
FUEL AVBL SELF SERVE AND FULL SERVICE
Parking: hangars and tiedowns

Runway Information

Runway 17/35

Dimensions: 4049 x 60 ft. / 1234 x 18 m
Surface: asphalt, in good condition
Runway edge lights: medium intensity
RY 17/35 NSTD MIRL; LENSES ON THLD & DSPLCD THLD CLEAR LENSES WITH SOLID COLOR BULBS.
RUNWAY 17  RUNWAY 35
Latitude: 32-35.240523N32-34.580380N
Longitude: 097-35.505517W097-35.388090W
Elevation: 873.1 ft.836.7 ft.
Traffic pattern: leftleft
Runway heading: 165 magnetic, 171 true345 magnetic, 351 true
Displaced threshold: 392 ft.215 ft.
Markings: nonprecision, in good conditionnonprecision, in good condition
Visual slope indicator: 2-box VASI on left (3.00 degrees glide path)2-box VASI on left (3.00 degrees glide path)
Touchdown point: yes, no lightsyes, no lights
Obstructions: 32 ft. pole, 356 ft. from runway, 250 ft. right of centerline, 4:1 slope to clear
+20 FT ROAD 0 FT FM PAVEMENT 125 FT R TO 125 FT FM PAVEMENT 250 FT LEFT. +4 FT FENCE 0 FT FM PAVEMENT 80 FT RIGHT TO 100 FT FM PAVEMENT 250 FT LEFT.
24 ft. trees, 217 ft. from runway, 115 ft. right of centerline
+30 FT TREES 0-120 FT FM PAVEMENT 60 FT R & L.

Airport Ownership and Management from official FAA records

Ownership: Privately-owned
Owner: MATT RIX
17611 HWY 377 SOUTH
CRESSON, TX 76035
Phone 817-307-0718
ALSO MATTHEW MOORE - 682-521-7056.
Manager: NATALIE RIX
204 CONSTELLATION DR
CRESSON, TX 76035
Phone 817-396-4554

Airport Operational Statistics

Aircraft based on the field: 118
Single engine airplanes: 100
Multi engine airplanes: 15
Jet airplanes: 2
Helicopters: 1
    
Aircraft operations: avg 128/day *
75% local general aviation
25% transient general aviation
* for 12-month period ending 05 April 2016

Additional Remarks

FOR CD CTC REGIONAL APCH AT 972-615-2799.

Instrument Procedures

NOTE: All procedures below are presented as PDF files. If you need a reader for these files, you should download the free Adobe Reader.

NOT FOR NAVIGATION. Please procure official charts for flight.
FAA instrument procedures published for use between 9 November 2017 at 0901Z and 7 December 2017 at 0900Z.

 
STARs - Standard Terminal Arrivals
LIKES THREE (RNAV)   download (195KB)
MOTZA EIGHT   2 pages: [1] [2] (501KB)
REEKO THREE (RNAV)   download (198KB)
SASIE FIVE   2 pages: [1] [2] (490KB)
TRUUK TWO (RNAV)   download (196KB)
WESAT TWO (RNAV)   download (190KB)
 
IAPs - Instrument Approach Procedures
RNAV (GPS) RWY 17   download (161KB)
RNAV (GPS) RWY 35   download (185KB)
VOR/DME-A   download (148KB)
 
Departure Procedures
GARLAND SIX   2 pages: [1] [2] (507KB)
HUBBARD NINE   2 pages: [1] [2] (501KB)
KINGDOM FOUR   2 pages: [1] [2] (534KB)
KUSSO FOUR (RNAV)   2 pages: [1] [2] (450KB)
SWABR FIVE (RNAV)   2 pages: [1] [2] (452KB)
NOTE: Special Take-Off Minimums/Departure Procedures apply   download

Other nearby airports with instrument procedures:

KWEA - Parker County Airport (11 nm NW)
KNFW - Fort Worth Naval Air Station JRB (Carswell Field) Airport (14 nm NE)
KGDJ - Granbury Regional Airport (14 nm SW)
KFWS - Fort Worth Spinks Airport (14 nm E)
KCPT - Cleburne Regional Airport (16 nm SE)
KFTW - Fort Worth Meacham International Airport (18 nm NE)
 
Loc | Ops | Rwys | IFR | FBO | Links
Com | Nav | Svcs | Stats | Notes


 
Area around 50F (Bourland Field Airport)
 
Road maps at: MapQuest Bing Google
 
Aerial photo
WARNING: Photo may not be current or correct
Aerial photo of 50F (Bourland Field Airport)
Photo by Paul Bristow
Photo taken 01-Jun-2008

Do you have a better or more recent aerial photo of Bourland Field Airport that you would like to share? If so, please send us your photo.

 
Sectional chart

 
Airport distance calculator
Flying to Bourland Field Airport? Find the distance to fly.

From to 50F

Sunrise and sunset
Times for 21-Nov-2017
 Local
(UTC-6)
 Zulu
(UTC)
Morning civil twilight06:4012:40
Sunrise07:0713:07
Sunset17:2623:26
Evening civil twilight17:5223:52

Current date and time
Zulu (UTC)  22-Nov-2017 03:19:22
Local (UTC-6)  21-Nov-2017 21:19:22
 
METAR
KNFW 
13nm NE 
220252Z 02014KT 10SM CLR 15/03 A3018 RMK AO2 SLP204 T01500028 51041 $
KGDJ 
14nm SW 
AWOS-3 118.925 817-573-7514
220255Z AUTO 35010KT 10SM CLR 14/05 A3019 RMK AO2 T01400050
KFWS 
15nm E 
220255Z AUTO 02010KT 10SM CLR 15/06 A3017 RMK AO2 T01460057
KCPT 
16nm SE 
220255Z AUTO 02013KT 5SM HZ CLR 15/07 A3016 RMK AO2
KFTW 
19nm NE 
220253Z 01012KT 10SM CLR 14/04 A3017 RMK AO2 SLP216 T01440044 51041
KGKY 
25nm E 
220253Z AUTO 36016G26KT 10SM CLR 15/07 A3015 RMK AO2 PK WND 01027/0234 SLP206 T01500067 51037 $
TAF
KNFW 
13nm NE 
2200/2223 16010KT 9999 BKN300 QNH2992INS BECMG 2117/2019 22008KT 9999 SCT200 QNH2984INS AUTOMATED SENSOR METWATCH 2105 TIL 2111 T09/2212Z T18/2221Z COR 0005 FN20047
KFTW 
19nm NE 
212056Z 2121/2218 35012KT P6SM BKN250 FM220200 01015KT P6SM FEW035 SCT250 FM221500 36010KT P6SM SKC
NOTAMs
Click for the latest NOTAMs
NOTAMs are issued by the DoD/FAA and will open in a separate window not controlled by AirNav.

 

 
 

FBO, Fuel Providers, and Aircraft Ground Support

  
 Business Name 
 
 Contact 
 
 Services / Description 
 
Fuel Prices
 
Comments
  
Bourland Field 817-396-4554
[web site]
[email]
Airport management, Aviation fuel, Aircraft parking (ramp or tiedown), Hangars, Hangar leasing / sales, Passenger terminal and lounge, Rental cars, ...

More info about Bourland Field
Avfuel
100LL Jet A
FS --- $3.29 
SS $4.17 $3.29 
 Updated 14-Nov-2017
 
   1 read write
FS=Full service
SS=Self service
Update Fuel Prices
 

Would you like to see your business listed on this page?

 If your business provides an interesting product or service to pilots, flight crews, aircraft, or users of the Bourland Field Airport, you should consider listing it here.  To start the listing process, click on the button below
 
Add a business
 

Other Pages about Bourland Field Airport

www.bourlandestates.com/bourlandfield.htm
 
Update a link
 
Copyright © AirNav, LLC. All rights reserved. Privacy Policy  Contact